Time;durP1;ratioP1;P1;durP2;ratioP2;P2;SDS_P1;SDS_P2;PMS_P1;PMS_P2;Temp;Humidity;BMP_temperature;BMP_pressure;BME280_temperature;BME280_humidity;BME280_pressure;Samples;Min_cycle;Max_cycle;Signal;HPM_P1;HPM_P2
2022/09/16 00:01:29;;;;;;;;;;;;;;;-144.99;100.00;52346.19;5078276;28;19975;-73
2022/09/16 00:03:56;;;;;;;;;;;;;;;-144.99;100.00;52358.41;5075844;28;20004;-76
2022/09/16 00:06:23;;;;;;;;;;;;;;;-144.99;100.00;52289.13;5082907;28;19967;-74
2022/09/16 00:08:52;;;;;;;;;;;;;;;-144.99;100.00;52325.81;5081837;28;19924;-73
2022/09/16 00:11:18;;;;;;;;;;;;;;;-144.99;100.00;52374.72;5087719;28;19931;-72
2022/09/16 00:13:45;;;;;;;;;;;;;;;-144.99;100.00;52362.50;5093645;28;19934;-73
2022/09/16 00:16:12;;;;;;;;;;;;;;;-144.99;100.00;52311.53;5091680;28;19924;-75
2022/09/16 00:18:39;;;;;;;;;;;;;;;-144.99;100.00;52293.19;5095613;28;19934;-73
2022/09/16 00:21:07;;;;;;;;;;;;;;;-144.99;100.00;52374.72;5093921;28;19963;-72
2022/09/16 00:23:34;;;;;;;;;;;;;;;-144.99;100.00;52309.50;5083544;28;19925;-73
2022/09/16 00:26:02;;;;;;;;;;;;;;;-144.99;100.00;52362.50;5111332;28;19924;-73
2022/09/16 00:28:28;;;;;;;;;;;;;;;-144.99;100.00;52297.25;5109844;28;19924;-73
2022/09/16 00:30:54;;;;;;;;;;;;;;;-144.99;100.00;52333.94;5107653;28;19935;-74
2022/09/16 00:33:21;;;;;;;;;;;;;;;-144.99;100.00;52317.66;5092947;28;20437;-74
2022/09/16 00:35:47;;;;;;;;;;;;;;;-144.99;100.00;52317.66;5100276;28;19931;-73
2022/09/16 00:38:13;;;;;;;;;;;;;;;-144.99;100.00;52358.41;5089611;28;20104;-73
2022/09/16 00:40:44;;;;;;;;;;;;;;;-144.99;100.00;52321.72;5088947;28;19925;-74
2022/09/16 00:43:12;;;;;;;;;;;;;;;-144.99;100.00;52346.19;5104127;28;19924;-75
2022/09/16 00:45:38;;;;;;;;;;;;;;;-144.99;100.00;52362.50;5091342;28;19934;-73
2022/09/16 00:48:06;;;;;;;;;;;;;;;-144.99;100.00;52325.81;5104791;28;19934;-74
2022/09/16 00:50:37;;;;;;;;;;;;;;;-144.99;100.00;52315.59;5099596;28;19924;-72
2022/09/16 00:53:03;;;;;;;;;;;;;;;-144.99;100.00;52305.41;5093393;28;21130;-73
2022/09/16 00:55:31;;;;;;;;;;;;;;;-144.99;100.00;52354.34;5100876;28;19924;-73
2022/09/16 00:58:03;;;;;;;;;;;;;;;-144.99;100.00;52329.88;5102660;28;19928;-73
2022/09/16 01:00:31;;;;;;;;;;;;;;;-144.99;100.00;52305.41;5102713;28;19935;-73
2022/09/16 01:02:58;;;;;;;;;;;;;;;-144.99;100.00;52309.50;5101091;28;20027;-74
2022/09/16 01:05:26;;;;;;;;;;;;;;;-144.99;100.00;52278.91;5097640;28;19947;-74
2022/09/16 01:07:53;;;;;;;;;;;;;;;-144.99;100.00;52342.09;5095577;28;19934;-73
2022/09/16 01:10:21;;;;;;;;;;;;;;;-144.99;100.00;52327.84;5098749;28;19924;-73
2022/09/16 01:12:49;;;;;;;;;;;;;;;-144.99;100.00;52346.19;5098447;28;19927;-73
2022/09/16 01:15:16;;;;;;;;;;;;;;;-144.99;100.00;52338.03;5093744;28;20032;-74
2022/09/16 01:18:00;;;;;;;;;;;;;;;-144.99;100.00;52301.34;5090880;28;19977;-74
2022/09/16 01:20:37;;;;;;;;;;;;;;;-144.99;100.00;52342.09;5075831;28;20342;-74
2022/09/16 01:23:24;;;;;;;;;;;;;;;-144.99;100.00;52313.56;5088827;28;19924;-73
2022/09/16 01:26:03;;;;;;;;;;;;;;;-144.99;100.00;52280.97;5079730;28;19927;-74
2022/09/16 01:28:41;;;;;;;;;;;;;;;-144.99;100.00;52350.25;5090179;28;19924;-74
2022/09/16 01:31:13;;;;;;;;;;;;;;;-144.99;100.00;52309.50;5089329;28;19931;-72
2022/09/16 01:33:43;;;;;;;;;;;;;;;-144.99;100.00;52352.28;5082117;28;19940;-72
2022/09/16 01:36:16;;;;;;;;;;;;;;;-144.99;100.00;52289.13;5086345;28;19924;-73
2022/09/16 01:38:52;;;;;;;;;;;;;;;-144.99;100.00;52336.00;5087943;28;19924;-72
2022/09/16 01:41:26;;;;;;;;;;;;;;;-144.99;100.00;52305.41;5087524;28;19931;-73
2022/09/16 01:43:57;;;;;;;;;;;;;;;-144.99;100.00;52325.81;5088422;28;19924;-73
2022/09/16 01:46:30;;;;;;;;;;;;;;;-144.99;100.00;52354.34;5087025;28;19935;-72
2022/09/16 01:48:58;;;;;;;;;;;;;;;-144.99;100.00;52358.41;5088149;28;19932;-72
2022/09/16 01:51:28;;;;;;;;;;;;;;;-144.99;100.00;52344.16;5088406;28;19937;-72
2022/09/16 01:54:02;;;;;;;;;;;;;;;-144.99;100.00;52364.53;5083145;28;19925;-73
2022/09/16 01:56:31;;;;;;;;;;;;;;;-144.99;100.00;52301.34;5079520;28;19924;-72
2022/09/16 01:59:01;;;;;;;;;;;;;;;-144.99;100.00;52280.97;5088788;28;19974;-73
2022/09/16 02:01:31;;;;;;;;;;;;;;;-144.99;100.00;52338.03;5086794;28;20021;-74
2022/09/16 02:04:01;;;;;;;;;;;;;;;-144.99;100.00;52289.13;5087113;28;19946;-73
2022/09/16 02:06:29;;;;;;;;;;;;;;;-144.99;100.00;52317.66;5077145;28;19924;-73
2022/09/16 02:08:58;;;;;;;;;;;;;;;-144.99;100.00;52366.56;5088480;28;19928;-73
2022/09/16 02:11:25;;;;;;;;;;;;;;;-144.99;100.00;52370.63;5080553;28;20160;-72
2022/09/16 02:13:54;;;;;;;;;;;;;;;-144.99;100.00;52327.84;5089251;28;19932;-73
2022/09/16 02:16:23;;;;;;;;;;;;;;;-144.99;100.00;52313.56;5078919;28;19928;-72
2022/09/16 02:18:52;;;;;;;;;;;;;;;-144.99;100.00;52338.03;5087982;28;19930;-72
2022/09/16 02:21:20;;;;;;;;;;;;;;;-144.99;100.00;52313.56;5079596;28;19924;-72
2022/09/16 02:23:48;;;;;;;;;;;;;;;-144.99;100.00;52336.00;5086423;28;19928;-73
2022/09/16 02:26:17;;;;;;;;;;;;;;;-144.99;100.00;52360.44;5079904;28;19924;-73
2022/09/16 02:28:47;;;;;;;;;;;;;;;-144.99;100.00;52338.03;5080560;28;20026;-73
2022/09/16 02:31:13;;;;;;;;;;;;;;;-144.99;100.00;52309.50;5092100;28;19927;-72
2022/09/16 02:33:44;;;;;;;;;;;;;;;-144.99;100.00;52348.22;5091669;28;20353;-73
2022/09/16 02:36:12;;;;;;;;;;;;;;;-144.99;100.00;52323.75;5091148;28;19927;-72
2022/09/16 02:38:41;;;;;;;;;;;;;;;-144.99;100.00;52338.03;5096975;28;20092;-74
2022/09/16 02:41:13;;;;;;;;;;;;;;;-144.99;100.00;52370.63;5099614;28;19932;-73
2022/09/16 02:43:40;;;;;;;;;;;;;;;-144.99;100.00;52317.66;5099623;28;19924;-73
2022/09/16 02:46:09;;;;;;;;;;;;;;;-144.99;100.00;52305.41;5093302;28;19939;-73
2022/09/16 02:48:42;;;;;;;;;;;;;;;-144.99;100.00;52333.94;5085920;28;19935;-72
2022/09/16 02:51:13;;;;;;;;;;;;;;;-144.99;100.00;52342.09;5090633;28;19928;-72
2022/09/16 02:53:43;;;;;;;;;;;;;;;-144.99;100.00;52315.59;5089058;28;20413;-73
2022/09/16 02:56:14;;;;;;;;;;;;;;;-144.99;100.00;52321.72;5079351;28;19928;-72
2022/09/16 02:58:40;;;;;;;;;;;;;;;-144.99;100.00;52317.66;5087259;28;20315;-72
2022/09/16 03:01:07;;;;;;;;;;;;;;;-144.99;100.00;52293.19;5091658;28;19923;-72
2022/09/16 03:03:33;;;;;;;;;;;;;;;-144.99;100.00;52317.66;5095375;28;19931;-73
2022/09/16 03:06:20;;;;;;;;;;;;;;;-144.99;100.00;52350.25;5091724;28;19928;-73
2022/09/16 03:08:48;;;;;;;;;;;;;;;-144.99;100.00;52360.44;5083122;28;19939;-74
2022/09/16 03:11:33;;;;;;;;;;;;;;;-144.99;100.00;52336.00;5091906;28;20454;-73
2022/09/16 03:14:06;;;;;;;;;;;;;;;-144.99;100.00;52329.88;5091436;28;19934;-74
2022/09/16 03:16:36;;;;;;;;;;;;;;;-144.99;100.00;52317.66;5085754;28;19928;-74
2022/09/16 03:19:09;;;;;;;;;;;;;;;-144.99;100.00;52313.56;5086495;28;20390;-73
2022/09/16 03:21:40;;;;;;;;;;;;;;;-144.99;100.00;52333.94;5092159;28;19935;-74
2022/09/16 03:26:42;;;;;;;;;;;;;;;-144.99;100.00;52305.41;5060560;28;19931;-74
2022/09/16 03:29:12;;;;;;;;;;;;;;;-144.99;100.00;52374.72;5067269;28;19936;-75
2022/09/16 03:31:44;;;;;;;;;;;;;;;-144.99;100.00;52350.25;5062865;28;19936;-75
2022/09/16 03:34:15;;;;;;;;;;;;;;;-144.99;100.00;52329.88;5070224;28;19930;-72
2022/09/16 03:36:44;;;;;;;;;;;;;;;-144.99;100.00;52372.69;5072242;28;19931;-72
2022/09/16 03:39:11;;;;;;;;;;;;;;;-144.99;100.00;52366.56;5071581;28;19924;-71
2022/09/16 03:41:39;;;;;;;;;;;;;;;-144.99;100.00;52301.34;5068885;28;19924;-70
2022/09/16 03:44:06;;;;;;;;;;;;;;;-144.99;100.00;52354.34;5069610;28;20533;-72
2022/09/16 03:46:32;;;;;;;;;;;;;;;-144.99;100.00;52338.03;5067692;28;20300;-72
2022/09/16 03:48:59;;;;;;;;;;;;;;;-144.99;100.00;52319.69;5071823;28;20019;-74
2022/09/16 03:51:25;;;;;;;;;;;;;;;-144.99;100.00;52329.88;5069435;28;19959;-73
2022/09/16 03:53:52;;;;;;;;;;;;;;;-144.99;100.00;52317.66;5069757;28;19944;-74
2022/09/16 03:56:19;;;;;;;;;;;;;;;-144.99;100.00;52342.09;5069086;28;20378;-72
2022/09/16 03:58:48;;;;;;;;;;;;;;;-144.99;100.00;52346.19;5068994;28;19936;-73
2022/09/16 04:01:14;;;;;;;;;;;;;;;-144.99;100.00;52309.50;5067496;28;20245;-73
2022/09/16 04:03:41;;;;;;;;;;;;;;;-144.99;100.00;52321.72;5069442;28;19940;-76
2022/09/16 04:06:08;;;;;;;;;;;;;;;-144.99;100.00;52321.72;5071359;28;19924;-77
2022/09/16 04:08:35;;;;;;;;;;;;;;;-144.99;100.00;52309.50;5075033;28;19929;-78
2022/09/16 04:11:04;;;;;;;;;;;;;;;-144.99;100.00;52333.94;5064076;28;19967;-77
2022/09/16 04:13:30;;;;;;;;;;;;;;;-144.99;100.00;52317.66;5070321;28;19925;-77
2022/09/16 04:15:58;;;;;;;;;;;;;;;-144.99;100.00;52342.09;5081706;28;19928;-77
2022/09/16 04:18:24;;;;;;;;;;;;;;;-144.99;100.00;52338.03;5070400;28;20308;-78
2022/09/16 04:20:51;;;;;;;;;;;;;;;-144.99;100.00;52268.72;5070091;28;19925;-74
2022/09/16 04:23:17;;;;;;;;;;;;;;;-144.99;100.00;52346.19;5069182;28;19925;-73
2022/09/16 04:25:44;;;;;;;;;;;;;;;-144.99;100.00;52346.19;5068992;28;19939;-75
2022/09/16 04:28:10;;;;;;;;;;;;;;;-144.99;100.00;52323.75;5068154;28;20682;-75
2022/09/16 04:30:37;;;;;;;;;;;;;;;-144.99;100.00;52354.34;5075294;28;19931;-74
2022/09/16 04:33:05;;;;;;;;;;;;;;;-144.99;100.00;52342.09;5066883;28;20200;-73
2022/09/16 04:35:31;;;;;;;;;;;;;;;-144.99;100.00;52338.03;5069794;28;19928;-73
2022/09/16 04:37:57;;;;;;;;;;;;;;;-144.99;100.00;52297.25;5071582;28;19933;-74
2022/09/16 04:40:24;;;;;;;;;;;;;;;-144.99;100.00;52342.09;5072483;28;19928;-74
2022/09/16 04:42:51;;;;;;;;;;;;;;;-144.99;100.00;52313.56;5068403;28;20347;-76
2022/09/16 04:45:17;;;;;;;;;;;;;;;-144.99;100.00;52348.22;5069330;28;20315;-75
2022/09/16 04:47:44;;;;;;;;;;;;;;;-144.99;100.00;52331.91;5067073;28;19932;-74
2022/09/16 04:50:12;;;;;;;;;;;;;;;-144.99;100.00;52338.03;5069830;28;19924;-72
2022/09/16 04:52:38;;;;;;;;;;;;;;;-144.99;100.00;52350.25;5068508;28;19925;-77
2022/09/16 04:55:05;;;;;;;;;;;;;;;-144.99;100.00;52333.94;5061241;28;19924;-75
2022/09/16 04:57:31;;;;;;;;;;;;;;;-144.99;100.00;52336.00;5065569;28;19924;-74
2022/09/16 04:59:58;;;;;;;;;;;;;;;-144.99;100.00;52309.50;5075304;28;19928;-75
2022/09/16 05:02:24;;;;;;;;;;;;;;;-144.99;100.00;52358.41;5086500;28;19924;-78
2022/09/16 05:04:51;;;;;;;;;;;;;;;-144.99;100.00;52336.00;4739084;28;9999981;-79
2022/09/16 05:07:18;;;;;;;;;;;;;;;-144.99;100.00;52346.19;5092024;28;19936;-78
2022/09/16 05:09:45;;;;;;;;;;;;;;;-144.99;100.00;52327.84;5092639;28;19951;-79
2022/09/16 05:12:12;;;;;;;;;;;;;;;-144.99;100.00;52319.69;5090527;28;19912;-80
2022/09/16 05:14:38;;;;;;;;;;;;;;;-144.99;100.00;52374.72;5100674;28;19940;-79
2022/09/16 05:17:06;;;;;;;;;;;;;;;-144.99;100.00;52325.81;5089765;28;19953;-80
2022/09/16 05:19:32;;;;;;;;;;;;;;;-144.99;100.00;52342.09;5089436;28;19912;-80
2022/09/16 05:21:59;;;;;;;;;;;;;;;-144.99;100.00;52342.09;5088663;28;20099;-81
2022/09/16 05:24:27;;;;;;;;;;;;;;;-144.99;100.00;52391.03;5094104;28;19912;-80
2022/09/16 05:26:59;;;;;;;;;;;;;;;-144.99;100.00;52317.66;5092951;28;19944;-81
2022/09/16 05:29:25;;;;;;;;;;;;;;;-144.99;100.00;52350.25;5087058;22;19928;-70
2022/09/16 05:31:52;;;;;;;;;;;;;;;-144.99;100.00;52342.09;5047237;28;20595;-66
2022/09/16 05:34:20;;;;;;;;;;;;;;;-144.99;100.00;52321.72;5046657;28;20020;-67
2022/09/16 05:36:47;;;;;;;;;;;;;;;-144.99;100.00;52325.81;5047130;28;20293;-67
2022/09/16 05:39:14;;;;;;;;;;;;;;;-144.99;100.00;52362.50;5049581;28;19933;-67
2022/09/16 05:41:42;;;;;;;;;;;;;;;-144.99;100.00;52354.34;5047633;28;19928;-67
2022/09/16 05:44:08;;;;;;;;;;;;;;;-144.99;100.00;52333.94;5048017;28;19936;-67
2022/09/16 05:46:35;;;;;;;;;;;;;;;-144.99;100.00;52350.25;5047079;28;19971;-67
2022/09/16 05:49:01;;;;;;;;;;;;;;;-144.99;100.00;52313.56;5047088;28;19925;-67
2022/09/16 05:51:28;;;;;;;;;;;;;;;-144.99;100.00;52315.59;5048086;28;19933;-68
2022/09/16 05:53:55;;;;;;;;;;;;;;;-144.99;100.00;52360.44;5050192;28;19931;-67
2022/09/16 05:56:24;;;;;;;;;;;;;;;-144.99;100.00;52342.09;5041520;28;19935;-66
2022/09/16 05:58:53;;;;;;;;;;;;;;;-144.99;100.00;52378.78;5047050;28;20352;-68
2022/09/16 06:01:20;;;;;;;;;;;;;;;-144.99;100.00;52372.69;5045637;28;20032;-67
2022/09/16 06:03:47;;;;;;;;;;;;;;;-144.99;100.00;52342.09;5055535;28;20014;-67
2022/09/16 06:06:14;;;;;;;;;;;;;;;-144.99;100.00;52350.25;5043886;28;20127;-67
2022/09/16 06:08:41;;;;;;;;;;;;;;;-144.99;100.00;52340.06;5047467;28;19928;-67
2022/09/16 06:11:09;;;;;;;;;;;;;;;-144.99;100.00;52323.75;5039234;28;20302;-67
2022/09/16 06:13:36;;;;;;;;;;;;;;;-144.99;100.00;52342.09;5051926;28;20402;-68
2022/09/16 06:16:05;;;;;;;;;;;;;;;-144.99;100.00;52350.25;5046485;28;19929;-68
2022/09/16 06:18:32;;;;;;;;;;;;;;;-144.99;100.00;52285.03;5042304;28;20170;-68
2022/09/16 06:20:58;;;;;;;;;;;;;;;-144.99;100.00;52325.81;5047207;28;19932;-67
2022/09/16 06:23:25;;;;;;;;;;;;;;;-144.99;100.00;52309.50;5048055;28;20097;-68
2022/09/16 06:25:59;;;;;;;;;;;;;;;-144.99;100.00;52338.03;5042296;28;19936;-67
2022/09/16 06:28:25;;;;;;;;;;;;;;;-144.99;100.00;52333.94;5050529;28;19925;-67
2022/09/16 06:31:00;;;;;;;;;;;;;;;-144.99;100.00;52317.66;5053458;28;19932;-67
2022/09/16 06:33:28;;;;;;;;;;;;;;;-144.99;100.00;52333.94;5049432;28;20275;-69
2022/09/16 06:35:55;;;;;;;;;;;;;;;-144.99;100.00;52289.13;5047517;28;20024;-67
2022/09/16 06:38:22;;;;;;;;;;;;;;;-144.99;100.00;52329.88;5051826;28;19936;-69
2022/09/16 06:40:49;;;;;;;;;;;;;;;-144.99;100.00;52350.25;5052470;28;19925;-68
2022/09/16 06:43:15;;;;;;;;;;;;;;;-144.99;100.00;52309.50;5041521;28;19928;-68
2022/09/16 06:45:42;;;;;;;;;;;;;;;-144.99;100.00;52354.34;5054959;28;19925;-68
2022/09/16 06:48:08;;;;;;;;;;;;;;;-144.99;100.00;52309.50;5050228;28;19929;-68
2022/09/16 06:50:36;;;;;;;;;;;;;;;-144.99;100.00;52297.25;5050339;28;20079;-67
2022/09/16 06:53:03;;;;;;;;;;;;;;;-144.99;100.00;52301.34;5050522;28;19935;-67
2022/09/16 06:55:36;;;;;;;;;;;;;;;-144.99;100.00;52280.97;4931169;28;10000263;-68
2022/09/16 06:58:02;;;;;;;;;;;;;;;-144.99;100.00;52305.41;5050935;28;20310;-68
2022/09/16 07:00:29;;;;;;;;;;;;;;;-144.99;100.00;52285.03;5050170;28;20023;-67
2022/09/16 07:02:55;;;;;;;;;;;;;;;-144.99;100.00;52333.94;5053186;28;19967;-68
2022/09/16 07:05:21;;;;;;;;;;;;;;;-144.99;100.00;52325.81;5048538;28;20347;-68
2022/09/16 07:07:49;;;;;;;;;;;;;;;-144.99;100.00;52325.81;5049741;28;19924;-67
2022/09/16 07:10:16;;;;;;;;;;;;;;;-144.99;100.00;52333.94;5050702;28;19935;-68
2022/09/16 07:12:42;;;;;;;;;;;;;;;-144.99;100.00;52317.66;5055807;28;19924;-68
2022/09/16 07:15:09;;;;;;;;;;;;;;;-144.99;100.00;52329.88;5056169;28;19935;-67
2022/09/16 07:17:35;;;;;;;;;;;;;;;-144.99;100.00;52305.41;5051559;28;19929;-66
2022/09/16 07:20:02;;;;;;;;;;;;;;;-144.99;100.00;52297.25;5049379;28;20456;-67
2022/09/16 07:22:30;;;;;;;;;;;;;;;-144.99;100.00;52321.72;5049756;28;20019;-68
2022/09/16 07:24:58;;;;;;;;;;;;;;;-144.99;100.00;52293.19;5050030;28;19999;-67
2022/09/16 07:27:24;;;;;;;;;;;;;;;-144.99;100.00;52309.50;5046623;28;19932;-68
2022/09/16 07:29:52;;;;;;;;;;;;;;;-144.99;100.00;52342.09;5049585;28;20301;-68
2022/09/16 07:32:19;;;;;;;;;;;;;;;-144.99;100.00;52325.81;5048993;28;19932;-67
2022/09/16 07:34:45;;;;;;;;;;;;;;;-144.99;100.00;52329.88;5048336;28;19929;-69
2022/09/16 07:37:12;;;;;;;;;;;;;;;-144.99;100.00;52315.59;5051872;28;19924;-68
2022/09/16 07:39:38;;;;;;;;;;;;;;;-144.99;100.00;52344.16;5051221;28;19929;-67
2022/09/16 07:42:06;;;;;;;;;;;;;;;-144.99;100.00;52327.84;5049078;28;19952;-67
2022/09/16 07:44:33;;;;;;;;;;;;;;;-144.99;100.00;52305.41;5049059;28;20389;-68
2022/09/16 07:46:59;;;;;;;;;;;;;;;-144.99;100.00;52325.81;5047648;28;19958;-68
2022/09/16 07:49:25;;;;;;;;;;;;;;;-144.99;100.00;52317.66;5049005;28;19929;-68
2022/09/16 07:51:52;;;;;;;;;;;;;;;-144.99;100.00;52280.97;5045865;28;19929;-68
2022/09/16 07:54:20;;;;;;;;;;;;;;;-144.99;99.82;52342.09;5049114;28;19929;-67
2022/09/16 07:56:46;;;;;;;;;;;;;;;-144.99;94.59;52317.66;5049664;28;19968;-67
2022/09/16 07:59:16;;;;;;;;;;;;;;;-144.99;90.69;52291.16;5048998;28;19924;-68
2022/09/16 08:01:42;;;;;;;;;;;;;;;-144.99;90.06;52329.88;5048035;28;19928;-68
2022/09/16 08:04:09;;;;;;;;;;;;;;;-144.99;90.88;52283.00;5049044;28;20302;-67
2022/09/16 08:06:37;;;;;;;;;;;;;;;-144.99;89.88;52301.34;5050722;28;20035;-67
2022/09/16 08:09:04;;;;;;;;;;;;;;;-144.99;89.44;52333.94;5048798;28;19928;-68
2022/09/16 08:11:30;;;;;;;;;;;;;;;-144.99;93.29;52283.00;5039876;28;20024;-68
2022/09/16 08:13:58;;;;;;;;;;;;;;;-144.99;93.05;52309.50;5049281;28;19929;-67
2022/09/16 08:16:26;;;;;;;;;;;;;;;-144.99;98.88;52329.88;5047844;28;19972;-67
2022/09/16 08:18:54;;;;;;;;;;;;;;;-144.99;99.52;52313.56;5052812;28;20247;-68
2022/09/16 08:21:22;;;;;;;;;;;;;;;-144.99;100.00;52299.31;5041894;28;19929;-67
2022/09/16 08:23:48;;;;;;;;;;;;;;;-144.99;100.00;52350.25;5048249;28;19925;-66
2022/09/16 08:26:15;;;;;;;;;;;;;;;-144.99;100.00;52319.69;5047901;28;19931;-67
2022/09/16 08:28:43;;;;;;;;;;;;;;;-144.99;100.00;52342.09;5047055;28;19929;-67
2022/09/16 08:31:10;;;;;;;;;;;;;;;-144.99;100.00;52333.94;5040583;28;19990;-66
2022/09/16 08:33:40;;;;;;;;;;;;;;;-144.99;100.00;52313.56;5047986;28;19933;-68
2022/09/16 08:36:08;;;;;;;;;;;;;;;-144.99;100.00;52293.19;5049221;28;19928;-67
2022/09/16 08:38:34;;;;;;;;;;;;;;;-144.99;100.00;52352.28;5050589;28;19983;-67
2022/09/16 08:41:03;;;;;;;;;;;;;;;-144.99;100.00;52309.50;5047940;28;19925;-68
2022/09/16 08:43:35;;;;;;;;;;;;;;;-144.99;100.00;52313.56;5048714;28;19932;-67
2022/09/16 08:46:08;;;;;;;;;;;;;;;-144.99;100.00;52299.31;5048174;28;19975;-67
2022/09/16 08:48:39;;;;;;;;;;;;;;;-144.99;100.00;52305.41;5048721;28;19958;-68
2022/09/16 08:51:09;;;;;;;;;;;;;;;-144.99;100.00;52280.97;5049890;28;19939;-68
2022/09/16 08:53:37;;;;;;;;;;;;;;;-144.99;100.00;52295.22;5046023;28;19935;-68
2022/09/16 08:56:05;;;;;;;;;;;;;;;-144.99;98.42;52299.31;5046708;28;20148;-68
2022/09/16 08:58:35;;;;;;;;;;;;;;;-144.99;94.32;52301.34;5047649;28;19958;-66
2022/09/16 09:01:04;;;;;;;;;;;;;;;-144.99;90.26;52285.03;5050341;28;19924;-67
2022/09/16 09:03:34;;;;;;;;;;;;;;;-144.99;88.90;52289.13;5047459;28;19924;-67
2022/09/16 09:06:03;;;;;;;;;;;;;;;-144.99;85.51;52258.53;5047830;28;19925;-68
2022/09/16 09:08:37;;;;;;;;;;;;;;;-144.99;83.06;52256.50;5048101;28;19928;-68
2022/09/16 09:11:09;;;;;;;;;;;;;;;-144.99;82.72;52256.50;5047782;28;19928;-68
2022/09/16 09:13:41;;;;;;;;;;;;;;;-144.99;77.23;52234.09;5040794;28;20472;-68
2022/09/16 09:16:12;;;;;;;;;;;;;;;-144.99;77.63;52276.88;5049282;28;20361;-67
2022/09/16 09:18:44;;;;;;;;;;;;;;;-144.99;80.20;52309.50;5048358;28;19989;-69
2022/09/16 09:21:18;;;;;;;;;;;;;;;-144.99;79.87;52289.13;5048471;28;19935;-67
2022/09/16 09:23:53;;;;;;;;;;;;;;;-144.99;79.28;52268.72;5048861;28;19928;-68
2022/09/16 09:26:21;;;;;;;;;;;;;;;-144.99;77.93;52272.81;5072754;22;20240;-68
2022/09/16 09:28:55;;;;;;;;;;;;;;;-144.99;72.44;52260.56;5087285;28;19928;-66
2022/09/16 09:31:26;;;;;;;;;;;;;;;-144.99;71.94;52260.56;5086047;28;19928;-66
2022/09/16 09:33:59;;;;;;;;;;;;;;;-144.99;70.09;52219.81;5082708;28;19928;-67
2022/09/16 09:36:36;;;;;;;;;;;;;;;-144.99;66.37;52225.94;5087151;28;19929;-66
2022/09/16 09:39:19;;;;;;;;;;;;;;;-144.99;66.71;52227.97;5087119;28;19935;-66
2022/09/16 09:41:47;;;;;;;;;;;;;;;-144.99;64.59;52219.81;5078728;28;19928;-66
2022/09/16 09:44:24;;;;;;;;;;;;;;;-144.99;63.46;52223.88;5084949;28;19928;-66
2022/09/16 09:46:53;;;;;;;;;;;;;;;-144.99;61.90;52219.81;5086512;28;20014;-67
2022/09/16 09:49:23;;;;;;;;;;;;;;;-144.99;63.85;52297.25;5087968;28;19928;-67
2022/09/16 09:51:54;;;;;;;;;;;;;;;-144.99;66.09;52260.56;5088228;28;20410;-67
2022/09/16 09:54:26;;;;;;;;;;;;;;;-144.99;73.47;52301.34;5086248;28;19927;-66
2022/09/16 09:56:55;;;;;;;;;;;;;;;-144.99;85.68;52313.56;5087917;28;19928;-66
2022/09/16 09:59:28;;;;;;;;;;;;;;;-144.99;67.02;52187.19;5087763;28;19928;-66
2022/09/16 10:01:56;;;;;;;;;;;;;;;-144.99;65.24;52236.13;5087727;28;19938;-67
2022/09/16 10:04:23;;;;;;;;;;;;;;;-144.99;63.73;52174.97;5079683;28;20015;-67
2022/09/16 10:06:51;;;;;;;;;;;;;;;-144.99;60.00;52191.28;5086883;28;20308;-67
2022/09/16 10:09:19;;;;;;;;;;;;;;;-144.99;56.38;52170.91;5086895;28;19928;-66
2022/09/16 10:11:48;;;;;;;;;;;;;;;-144.99;54.32;52154.59;5077170;28;20415;-66
2022/09/16 10:14:22;;;;;;;;;;;;;;;-144.99;52.79;52099.56;5081046;28;20031;-68
2022/09/16 10:16:51;;;;;;;;;;;;;;;-144.99;52.05;52146.44;5086400;28;19954;-67
2022/09/16 10:19:18;;;;;;;;;;;;;;;-144.99;51.10;52134.22;5086742;28;19928;-67
2022/09/16 10:21:47;;;;;;;;;;;;;;;-144.99;50.74;52154.59;5083185;28;20151;-67
2022/09/16 10:24:26;;;;;;;;;;;;;;;-144.99;50.26;52183.13;5083756;28;20404;-67
2022/09/16 10:26:54;;;;;;;;;;;;;;;-144.99;51.68;52146.44;5086123;28;19958;-67
2022/09/16 10:29:21;;;;;;;;;;;;;;;-144.99;51.88;52115.88;5086773;28;19925;-67
2022/09/16 10:31:48;;;;;;;;;;;;;;;-144.99;50.74;52109.75;5082504;28;20140;-67
2022/09/16 10:34:18;;;;;;;;;;;;;;;-144.99;48.75;52089.38;5086728;28;19928;-66
2022/09/16 10:36:45;;;;;;;;;;;;;;;-144.99;45.90;52073.06;5086092;28;20273;-67
2022/09/16 10:39:22;;;;;;;;;;;;;;;-144.99;44.75;52150.53;5086608;28;19928;-67
2022/09/16 10:41:49;;;;;;;;;;;;;;;-144.99;45.66;52197.41;5082309;28;20015;-67
2022/09/16 10:44:21;;;;;;;;;;;;;;;-144.99;46.07;52089.38;5086216;28;20308;-67
2022/09/16 10:46:51;;;;;;;;;;;;;;;-144.99;48.82;52223.88;5086398;28;19928;-67
2022/09/16 10:49:20;;;;;;;;;;;;;;;-144.99;56.70;52278.91;5085979;28;19939;-67
2022/09/16 10:51:46;;;;;;;;;;;;;;;-144.99;59.29;52240.19;5082888;28;20013;-67
2022/09/16 10:54:26;;;;;;;;;;;;;;;-144.99;55.96;52317.66;5084250;28;19960;-67
2022/09/16 10:56:53;;;;;;;;;;;;;;;-144.99;55.86;52283.00;5080959;28;20013;-67
2022/09/16 10:59:21;;;;;;;;;;;;;;;-144.99;56.81;52240.19;5076304;28;20595;-67
2022/09/16 11:01:59;;;;;;;;;;;;;;;-144.99;55.93;52297.25;5082886;28;19924;-66
2022/09/16 11:04:38;;;;;;;;;;;;;;;-144.99;56.32;52297.25;5079143;28;19936;-66
2022/09/16 11:07:10;;;;;;;;;;;;;;;-144.99;58.51;52348.22;5086227;28;20296;-67
2022/09/16 11:09:41;;;;;;;;;;;;;;;-144.99;62.17;52321.72;5086784;28;19932;-66
2022/09/16 11:12:17;;;;;;;;;;;;;;;-144.99;64.75;52317.66;5080322;28;19924;-66
2022/09/16 11:14:49;;;;;;;;;;;;;;;-144.99;65.94;52264.66;5085224;28;20300;-67
2022/09/16 11:17:26;;;;;;;;;;;;;;;-144.99;65.71;52297.25;5086021;28;19931;-66
2022/09/16 11:20:05;;;;;;;;;;;;;;;-144.99;66.46;52297.25;5082904;28;20143;-67
2022/09/16 11:22:36;;;;;;;;;;;;;;;-144.99;65.43;52113.84;5085467;28;19928;-67
2022/09/16 11:25:28;;;;;;;;;;;;;;;-144.99;59.85;52244.28;5090429;28;19947;-68
2022/09/16 11:28:01;;;;;;;;;;;;;;;-144.99;57.52;52066.97;5089888;28;20010;-67
2022/09/16 11:30:30;;;;;;;;;;;;;;;-144.99;54.52;52113.84;5089838;28;20406;-66
2022/09/16 11:33:06;;;;;;;;;;;;;;;-144.99;52.64;52079.19;5086147;28;20137;-68
2022/09/16 11:35:39;;;;;;;;;;;;;;;-144.99;49.56;52036.38;5083573;28;19935;-67
2022/09/16 11:38:10;;;;;;;;;;;;;;;-144.99;48.16;52020.09;5088186;28;19935;-66
2022/09/16 11:40:45;;;;;;;;;;;;;;;-144.99;48.33;52211.66;5088642;28;19928;-68
2022/09/16 11:43:22;;;;;;;;;;;;;;;-144.99;47.71;52211.66;5086810;28;19932;-68
2022/09/16 11:45:53;;;;;;;;;;;;;;;-144.99;49.58;52289.13;5090157;28;20368;-68
2022/09/16 11:48:32;;;;;;;;;;;;;;;-144.99;50.41;52256.50;5089631;28;20011;-68
2022/09/16 11:51:02;;;;;;;;;;;;;;;-144.99;51.36;52325.81;5089762;28;19934;-66
2022/09/16 11:53:44;;;;;;;;;;;;;;;-144.99;52.05;52319.69;5086140;28;19928;-66
2022/09/16 11:56:13;;;;;;;;;;;;;;;-144.99;55.33;52321.72;5087360;28;19968;-67
2022/09/16 11:58:45;;;;;;;;;;;;;;;-144.99;66.88;52338.03;5089121;28;19972;-67
2022/09/16 12:01:17;;;;;;;;;;;;;;;-144.99;75.28;52333.94;5089195;28;19936;-67
2022/09/16 12:03:46;;;;;;;;;;;;;;;-144.99;83.06;52362.50;5087970;28;20533;-67
2022/09/16 12:06:15;;;;;;;;;;;;;;;-144.99;86.86;52333.94;5089729;28;20019;-67
2022/09/16 12:08:48;;;;;;;;;;;;;;;-144.99;84.73;52174.97;5090918;28;19928;-67
2022/09/16 12:11:19;;;;;;;;;;;;;;;-144.99;78.49;52170.91;5083079;28;20449;-67
2022/09/16 12:13:48;;;;;;;;;;;;;;;-144.99;67.35;52064.91;5089724;28;19928;-68
2022/09/16 12:16:18;;;;;;;;;;;;;;;-144.99;65.58;52248.34;5089247;28;20412;-67
2022/09/16 12:18:45;;;;;;;;;;;;;;;-144.99;67.71;52227.97;5091540;28;19935;-67
2022/09/16 12:21:15;;;;;;;;;;;;;;;-144.99;67.07;52170.91;5090344;28;20406;-66
2022/09/16 12:23:45;;;;;;;;;;;;;;;-144.99;63.48;52146.44;5090123;28;20385;-67
2022/09/16 12:26:13;;;;;;;;;;;;;;;-144.99;60.40;52081.22;5084800;28;19954;-67
2022/09/16 12:28:44;;;;;;;;;;;;;;;-144.99;58.94;52158.66;5089740;28;20281;-67
2022/09/16 12:31:13;;;;;;;;;;;;;;;-144.99;58.73;52264.66;5088858;28;19928;-67
2022/09/16 12:33:44;;;;;;;;;;;;;;;-144.99;60.02;52276.88;5088886;28;19927;-68